Lake Sullivan, Indiana
Current Conditions -  °F | °C
As of 11:15 PM on Friday 19 Dec 2014 (Local Time) from KRSV Reporting Station
Overcast Overcast  
Wind Chill: 31°   Ceiling: 10000
Heat Index: 31°   Visibility: 10mi
Dew Point: 27°   Wind: 3mph
Humidity: 82%   Direction: 80°E
Pressure: 30.3"   Gusts: NA
Location:  39.1044°N, 87.4347°W
Report Text: KRSV 200415Z AUTO 08003KT 10SM OVC100 00/M03 A3030 RMK AO2 T10031030
Loading
Personal Weather Stations






























Interactive Weather Map New forecast layout! Learn more

10-Day Weather Forecast

Advertisements
Track Severe Weather on mobile